Time;durP1;ratioP1;P1;durP2;ratioP2;P2;SDS_P1;SDS_P2;PMS_P1;PMS_P2;Temp;Humidity;BMP_temperature;BMP_pressure;BME280_temperature;BME280_humidity;BME280_pressure;Samples;Min_cycle;Max_cycle;Signal;HPM_P1;HPM_P2
2022/03/24 00:02:09;;;;;;;45.30;29.80;;;1.50;99.90;0.50;101605;;;;576642;245;24088;-84
2022/03/24 00:04:35;;;;;;;46.60;28.37;;;1.50;99.90;0.50;101614;;;;576185;245;24084;-83
2022/03/24 00:07:06;;;;;;;38.97;26.47;;;1.50;99.90;0.40;101613;;;;576384;245;24063;-85
2022/03/24 00:09:30;;;;;;;40.03;25.60;;;1.50;99.90;0.40;101612;;;;579592;241;35297;-85
2022/03/24 00:11:58;;;;;;;37.40;17.63;;;1.50;99.90;0.40;101622;;;;575986;245;24078;-85
2022/03/24 00:14:27;;;;;;;39.07;17.47;;;1.40;99.90;0.40;101622;;;;576404;245;24111;-81
2022/03/24 00:16:56;;;;;;;33.40;17.53;;;1.40;99.90;0.40;101616;;;;576095;245;24145;-85
2022/03/24 00:19:25;;;;;;;40.93;19.70;;;1.40;99.90;0.30;101606;;;;576771;245;24082;-85
2022/03/24 00:21:56;;;;;;;37.47;22.57;;;1.40;99.90;0.40;101605;;;;577197;245;24091;-80
2022/03/24 00:24:20;;;;;;;43.30;28.17;;;1.40;99.90;0.30;101612;;;;576384;245;24073;-81
2022/03/24 00:26:52;;;;;;;44.53;27.33;;;1.30;99.90;0.30;101604;;;;569748;250;24131;-78
2022/03/24 00:29:17;;;;;;;44.73;27.10;;;1.30;99.90;0.30;101598;;;;576201;245;24104;-85
2022/03/24 00:31:46;;;;;;;40.00;27.10;;;1.30;99.90;0.30;101600;;;;576725;245;24099;-84
2022/03/24 00:34:15;;;;;;;43.97;27.47;;;1.30;99.90;0.30;101598;;;;576424;245;24112;-79
2022/03/24 00:36:40;;;;;;;37.30;26.17;;;1.30;99.90;0.30;101594;;;;584612;241;24080;-83
2022/03/24 00:39:08;;;;;;;40.07;27.03;;;1.30;99.90;0.30;101593;;;;576254;245;24073;-81
2022/03/24 00:41:36;;;;;;;46.50;26.37;;;1.40;99.90;0.30;101587;;;;576038;245;24109;-79
2022/03/24 00:44:04;;;;;;;40.53;27.70;;;1.30;99.90;0.30;101587;;;;575751;245;24116;-83
2022/03/24 00:46:32;;;;;;;36.30;26.70;;;1.30;99.90;0.30;101589;;;;575941;245;24094;-85
2022/03/24 00:49:03;;;;;;;38.37;25.83;;;1.30;99.90;0.20;101579;;;;575606;245;24116;-86
2022/03/24 00:51:28;;;;;;;36.83;25.97;;;1.30;99.90;0.20;101585;;;;579585;245;24080;-82
2022/03/24 00:53:56;;;;;;;37.30;25.10;;;1.30;99.90;0.20;101580;;;;575814;245;24112;-84
2022/03/24 00:56:27;;;;;;;35.90;24.33;;;1.30;99.90;0.20;101584;;;;575486;245;24111;-80
2022/03/24 00:58:52;;;;;;;36.10;24.10;;;1.30;99.90;0.20;101581;;;;584254;243;24146;-84
2022/03/24 01:01:21;;;;;;;35.13;24.00;;;1.20;99.90;0.20;101575;;;;575714;245;24072;-81
2022/03/24 01:03:49;;;;;;;35.80;22.90;;;1.20;99.90;0.20;101572;;;;575712;245;24106;-80
2022/03/24 01:06:22;;;;;;;37.30;23.00;;;1.20;99.90;0.10;101570;;;;575796;245;24087;-82
2022/03/24 01:08:46;;;;;;;38.87;22.03;;;1.20;99.90;0.10;101566;;;;575958;244;24188;-82
2022/03/24 01:11:15;;;;;;;34.37;23.57;;;1.10;99.90;0.10;101564;;;;577151;245;24090;-82
2022/03/24 01:13:44;;;;;;;30.73;21.60;;;1.10;99.90;0.10;101562;;;;576803;245;24135;-81
2022/03/24 01:16:11;;;;;;;30.63;23.00;;;1.10;99.90;0.00;101559;;;;576610;245;24173;-85
2022/03/24 01:18:40;;;;;;;32.63;21.03;;;1.10;99.90;0.10;101554;;;;576459;245;24099;-81
2022/03/24 01:21:09;;;;;;;30.30;21.27;;;1.10;99.90;0.10;101549;;;;576195;245;24099;-80
2022/03/24 01:23:36;;;;;;;36.27;22.93;;;1.10;99.90;0.00;101552;;;;576171;245;24128;-80
2022/03/24 01:26:07;;;;;;;30.80;21.37;;;1.10;99.90;0.00;101546;;;;576145;245;24087;-84
2022/03/24 01:28:35;;;;;;;29.50;21.40;;;1.10;99.90;0.00;101550;;;;575852;245;25121;-82
2022/03/24 01:31:03;;;;;;;31.47;22.07;;;1.00;99.90;0.00;101542;;;;575960;245;24082;-81
2022/03/24 01:33:31;;;;;;;31.90;22.33;;;1.00;99.90;0.00;101549;;;;575873;245;24074;-81
2022/03/24 01:36:03;;;;;;;30.57;21.63;;;1.00;99.90;0.00;101538;;;;575962;245;24081;-80
2022/03/24 01:38:27;;;;;;;36.73;21.50;;;1.00;99.90;0.00;101534;;;;574601;245;24126;-80
2022/03/24 01:40:58;;;;;;;29.00;20.77;;;1.00;99.90;0.00;101532;;;;575793;245;24082;-81
2022/03/24 01:43:24;;;;;;;32.47;21.03;;;1.00;99.90;0.00;101532;;;;575738;245;24064;-80
2022/03/24 01:45:55;;;;;;;33.80;22.33;;;1.10;99.90;0.00;101532;;;;575572;245;24123;-79
2022/03/24 01:48:22;;;;;;;33.00;23.43;;;1.10;99.90;0.10;101527;;;;575386;245;25145;-81
2022/03/24 01:50:48;;;;;;;35.23;24.20;;;1.10;99.90;0.20;101528;;;;574974;245;24112;-85
2022/03/24 01:53:18;;;;;;;37.80;23.90;;;1.20;99.90;0.20;101528;;;;575638;245;24077;-83
2022/03/24 01:55:47;;;;;;;36.90;22.97;;;1.20;99.90;0.20;101529;;;;575582;245;24084;-80
2022/03/24 01:58:16;;;;;;;32.67;22.33;;;1.20;99.90;0.20;101526;;;;575505;245;24089;-79
2022/03/24 02:00:40;;;;;;;36.77;23.30;;;1.20;99.90;0.30;101529;;;;575661;245;24065;-80
2022/03/24 02:03:08;;;;;;;33.93;21.33;;;1.30;99.90;0.30;101523;;;;584588;245;24072;-81
2022/03/24 02:05:40;;;;;;;31.97;21.83;;;1.30;99.90;0.30;101527;;;;574907;245;24069;-83
2022/03/24 02:08:04;;;;;;;33.60;20.77;;;1.30;99.90;0.30;101531;;;;584224;245;24083;-83
2022/03/24 02:10:35;;;;;;;31.73;21.37;;;1.30;99.90;0.30;101526;;;;575674;245;24055;-85
2022/03/24 02:13:03;;;;;;;29.10;20.93;;;1.40;99.90;0.40;101520;;;;574851;245;24088;-83
2022/03/24 02:15:28;;;;;;;32.73;20.50;;;1.40;99.90;0.40;101521;;;;574861;245;25161;-80
2022/03/24 02:17:59;;;;;;;31.60;21.23;;;1.50;99.90;0.50;101527;;;;573530;250;24114;-81
2022/03/24 02:20:27;;;;;;;29.20;19.87;;;1.50;99.90;0.50;101520;;;;584415;244;24093;-82
2022/03/24 02:22:52;;;;;;;29.27;19.43;;;1.50;99.90;0.50;101520;;;;576068;245;24109;-81
2022/03/24 02:25:23;;;;;;;28.80;19.13;;;1.60;99.90;0.50;101510;;;;576233;245;24111;-82
2022/03/24 02:27:55;;;;;;;31.03;18.27;;;1.50;99.90;0.60;101511;;;;584843;241;24098;-81
2022/03/24 02:30:16;;;;;;;26.87;16.77;;;1.60;99.90;0.60;101522;;;;575876;245;24090;-81
2022/03/24 02:32:44;;;;;;;28.57;18.57;;;1.60;99.90;0.60;101508;;;;569526;250;24112;-81
2022/03/24 02:35:13;;;;;;;21.47;12.97;;;1.60;99.90;0.60;101512;;;;575948;245;25124;-80
2022/03/24 02:37:40;;;;;;;24.97;13.23;;;1.60;99.90;0.60;101508;;;;575712;245;24073;-79
2022/03/24 02:40:09;;;;;;;25.33;13.20;;;1.60;99.90;0.60;101506;;;;575744;245;24136;-78
2022/03/24 02:42:38;;;;;;;28.30;12.97;;;1.60;99.90;0.60;101502;;;;574471;245;24091;-78
2022/03/24 02:45:05;;;;;;;23.03;12.37;;;1.60;99.90;0.60;101506;;;;575488;245;24080;-79
2022/03/24 02:47:32;;;;;;;23.17;12.27;;;1.70;99.90;0.70;101506;;;;584251;241;24149;-78
2022/03/24 02:50:03;;;;;;;23.33;9.83;;;1.70;99.90;0.70;101502;;;;575388;245;24091;-79
2022/03/24 02:52:28;;;;;;;15.37;9.60;;;1.70;99.90;0.80;101500;;;;583167;245;24130;-78
2022/03/24 02:54:56;;;;;;;10.70;7.20;;;1.70;99.90;0.80;101499;;;;584173;245;24102;-78
2022/03/24 02:57:25;;;;;;;17.17;9.37;;;1.80;99.90;0.90;101504;;;;575272;245;24091;-78
2022/03/24 02:59:53;;;;;;;21.73;11.47;;;1.80;99.90;0.90;101507;;;;575148;245;24155;-78
2022/03/24 03:02:21;;;;;;;21.77;9.97;;;1.90;99.90;0.90;101496;;;;575269;245;24086;-82
2022/03/24 03:04:53;;;;;;;18.50;10.13;;;1.80;99.90;0.90;101497;;;;575475;245;24134;-82
2022/03/24 03:07:22;;;;;;;18.40;8.90;;;1.90;99.90;1.00;101494;;;;576151;245;24098;-80
2022/03/24 03:09:47;;;;;;;19.50;8.20;;;1.90;99.90;1.00;101504;;;;576319;245;24102;-79
2022/03/24 03:12:16;;;;;;;16.93;10.00;;;2.00;99.90;1.00;101503;;;;576472;245;24060;-79
2022/03/24 03:14:46;;;;;;;18.50;10.10;;;2.00;99.90;1.00;101503;;;;585874;242;24086;-81
2022/03/24 03:17:11;;;;;;;18.17;10.17;;;2.00;99.90;1.00;101500;;;;576577;245;24084;-79
2022/03/24 03:19:39;;;;;;;25.00;10.30;;;2.00;99.90;1.00;101498;;;;576741;245;24124;-80
2022/03/24 03:22:10;;;;;;;18.43;10.63;;;2.00;99.90;1.10;101500;;;;575606;245;24076;-83
2022/03/24 03:24:35;;;;;;;19.47;9.80;;;2.00;99.90;1.10;101502;;;;584645;245;24111;-82
2022/03/24 03:27:05;;;;;;;15.33;9.33;;;2.10;99.90;1.00;101498;;;;576133;245;24083;-85
2022/03/24 03:29:32;;;;;;;17.93;9.33;;;2.00;99.90;1.00;101500;;;;576088;245;24094;-85
2022/03/24 03:31:59;;;;;;;21.43;10.57;;;2.00;99.90;1.00;101505;;;;576539;244;24077;-83
2022/03/24 03:34:31;;;;;;;21.80;10.87;;;2.00;99.90;1.00;101500;;;;577351;245;24091;-82
2022/03/24 03:36:58;;;;;;;16.67;9.20;;;2.00;99.90;1.00;101503;;;;585450;245;24092;-84
2022/03/24 03:39:23;;;;;;;14.53;8.23;;;2.00;99.90;1.00;101502;;;;565828;250;24105;-82
2022/03/24 03:41:51;;;;;;;19.13;9.60;;;2.00;99.90;1.00;101505;;;;565432;250;24182;-80
2022/03/24 03:44:19;;;;;;;16.10;7.53;;;2.00;99.90;1.00;101498;;;;585408;245;24125;-81
2022/03/24 03:46:47;;;;;;;15.60;9.50;;;2.00;99.90;1.00;101499;;;;585241;241;24112;-81
2022/03/24 03:49:14;;;;;;;15.87;8.50;;;2.00;99.90;1.00;101507;;;;576383;245;24106;-84
2022/03/24 03:51:42;;;;;;;16.60;8.83;;;2.00;99.90;1.00;101506;;;;576175;245;24075;-81
2022/03/24 03:54:10;;;;;;;17.47;8.40;;;2.00;99.90;1.00;101513;;;;575789;245;25144;-82
2022/03/24 03:56:42;;;;;;;22.53;9.33;;;2.00;99.90;1.10;101516;;;;575933;245;24087;-84
2022/03/24 03:59:09;;;;;;;15.53;8.83;;;2.00;99.90;1.10;101499;;;;575549;245;24102;-83
2022/03/24 04:01:34;;;;;;;23.67;10.17;;;2.10;99.90;1.20;101499;;;;575745;245;24084;-85
2022/03/24 04:04:02;;;;;;;16.43;8.80;;;2.10;99.90;1.20;101497;;;;575764;245;24079;-86
2022/03/24 04:06:30;;;;;;;16.27;9.03;;;2.20;99.90;1.20;101500;;;;575892;245;24118;-85
2022/03/24 04:08:58;;;;;;;18.90;9.00;;;2.20;99.90;1.20;101494;;;;575938;245;24106;-85
2022/03/24 04:11:26;;;;;;;20.10;10.30;;;2.20;99.90;1.30;101501;;;;575757;245;24083;-85
2022/03/24 04:13:54;;;;;;;15.57;8.50;;;2.20;99.90;1.20;101506;;;;576014;245;24073;-85
2022/03/24 04:16:22;;;;;;;23.10;10.17;;;2.20;99.90;1.30;101507;;;;576053;245;24073;-85
2022/03/24 04:18:50;;;;;;;12.83;7.97;;;2.20;99.90;1.30;101505;;;;576077;245;24089;-85
2022/03/24 04:21:19;;;;;;;12.77;6.80;;;2.20;99.90;1.30;101507;;;;576095;245;24085;-82
2022/03/24 04:23:46;;;;;;;18.90;10.00;;;2.30;99.90;1.30;101506;;;;576034;245;25117;-86
2022/03/24 04:26:14;;;;;;;16.63;9.20;;;2.30;99.90;1.30;101505;;;;584922;245;24104;-84
2022/03/24 04:28:44;;;;;;;18.20;9.33;;;2.30;99.90;1.30;101499;;;;576021;245;24090;-87
2022/03/24 04:31:13;;;;;;;17.17;10.70;;;2.30;99.90;1.30;101496;;;;582713;245;24086;-83
2022/03/24 04:33:41;;;;;;;18.37;9.67;;;2.30;99.90;1.40;101512;;;;576012;245;24125;-85
2022/03/24 04:36:10;;;;;;;15.83;8.17;;;2.30;99.90;1.40;101507;;;;576016;245;24127;-84
2022/03/24 04:38:38;;;;;;;20.67;10.80;;;2.40;99.90;1.40;101510;;;;575894;245;24100;-83
2022/03/24 04:41:06;;;;;;;19.43;10.30;;;2.30;99.90;1.40;101496;;;;584824;245;24078;-83
2022/03/24 04:43:37;;;;;;;17.67;10.27;;;2.40;99.90;1.40;101506;;;;575417;244;24075;-83
2022/03/24 04:46:04;;;;;;;18.33;10.63;;;2.40;99.90;1.40;101502;;;;585884;239;24102;-85
2022/03/24 04:48:35;;;;;;;21.43;10.33;;;2.40;99.90;1.40;101507;;;;585826;243;24077;-82
2022/03/24 04:50:57;;;;;;;24.13;11.73;;;2.40;99.90;1.40;101501;;;;585272;242;24094;-82
2022/03/24 04:53:25;;;;;;;19.60;10.53;;;2.40;99.90;1.40;101502;;;;585106;245;24139;-80
2022/03/24 04:55:53;;;;;;;15.87;9.53;;;2.40;99.90;1.50;101507;;;;576174;245;24081;-86
2022/03/24 04:58:21;;;;;;;21.03;10.40;;;2.40;99.90;1.50;101501;;;;576306;245;24125;-85
2022/03/24 05:00:49;;;;;;;20.87;7.73;;;2.50;99.90;1.60;101494;;;;576686;245;24152;-84
2022/03/24 05:03:17;;;;;;;25.27;10.40;;;2.50;99.90;1.60;101494;;;;576036;245;24071;-84
2022/03/24 05:05:45;;;;;;;16.80;9.57;;;2.50;99.90;1.70;101504;;;;575874;245;24091;-83
2022/03/24 05:08:16;;;;;;;20.77;10.50;;;2.60;99.90;1.70;101500;;;;575959;245;24072;-86
2022/03/24 05:10:41;;;;;;;19.43;10.03;;;2.70;99.90;1.80;101493;;;;584502;245;24126;-85
2022/03/24 05:13:08;;;;;;;23.43;10.67;;;2.70;99.90;1.90;101493;;;;575930;245;24122;-84
2022/03/24 05:15:37;;;;;;;20.67;11.23;;;2.80;99.90;1.90;101496;;;;576408;245;24127;-84
2022/03/24 05:18:07;;;;;;;18.63;10.57;;;2.90;99.90;2.00;101486;;;;576283;245;24124;-83
2022/03/24 05:20:36;;;;;;;25.73;10.93;;;2.90;99.90;2.10;101487;;;;576058;245;24080;-83
2022/03/24 05:23:01;;;;;;;34.37;11.87;;;3.00;99.90;2.10;101484;;;;584792;241;24091;-83
2022/03/24 05:25:29;;;;;;;12.67;7.87;;;3.00;99.90;2.20;101493;;;;575657;245;24073;-80
2022/03/24 05:27:57;;;;;;;29.15;17.23;;;3.10;99.90;2.30;101490;;;;570520;245;35266;-78
2022/03/24 05:30:26;;;;;;;23.90;12.23;;;3.20;99.90;2.40;101485;;;;575549;245;24153;-79
2022/03/24 05:32:53;;;;;;;24.80;14.07;;;3.30;99.90;2.40;101493;;;;575640;245;24085;-80
2022/03/24 05:35:22;;;;;;;23.13;12.93;;;3.40;99.90;2.60;101500;;;;575777;245;24108;-80
2022/03/24 05:37:53;;;;;;;23.77;11.57;;;3.50;99.90;2.70;101495;;;;575299;245;24098;-83
2022/03/24 05:40:18;;;;;;;22.27;12.00;;;3.60;99.90;2.90;101495;;;;584569;245;24088;-82
2022/03/24 05:42:46;;;;;;;25.37;11.30;;;3.80;99.90;4.20;101496;;;;575871;245;24107;-84
2022/03/24 05:45:14;;;;;;;21.47;10.80;;;4.70;99.90;6.10;101510;;;;575844;245;24101;-81
2022/03/24 05:47:42;;;;;;;25.87;14.17;;;6.30;99.90;7.90;101504;;;;575398;245;24185;-85
2022/03/24 05:50:10;;;;;;;26.43;12.73;;;8.00;99.90;9.40;101510;;;;575444;245;24113;-82
2022/03/24 05:52:38;;;;;;;26.03;14.33;;;9.60;99.90;10.50;101513;;;;583807;245;24083;-83
2022/03/24 05:55:06;;;;;;;22.07;13.37;;;10.80;97.00;11.90;101516;;;;575627;244;25125;-81
2022/03/24 05:57:34;;;;;;;24.30;14.90;;;12.10;90.80;12.80;101512;;;;576930;245;24110;-85
2022/03/24 06:00:05;;;;;;;25.03;15.13;;;13.20;81.70;13.90;101519;;;;577518;245;24228;-81
2022/03/24 06:02:32;;;;;;;30.03;15.87;;;15.00;68.60;14.50;101508;;;;576736;245;24087;-85
2022/03/24 06:04:58;;;;;;;24.60;14.60;;;14.90;68.60;15.20;101513;;;;576221;245;24087;-84
2022/03/24 06:07:26;;;;;;;20.30;13.63;;;15.70;64.80;16.40;101515;;;;576183;245;24185;-86
2022/03/24 06:09:54;;;;;;;21.40;15.03;;;16.70;59.60;17.10;101521;;;;576184;245;24062;-85
2022/03/24 06:12:25;;;;;;;20.17;14.67;;;17.60;57.40;17.60;101527;;;;576258;245;24124;-86
2022/03/24 06:14:51;;;;;;;22.07;14.33;;;18.10;55.10;17.90;101527;;;;575373;245;24080;-85
2022/03/24 06:17:19;;;;;;;19.07;13.87;;;18.60;53.10;18.20;101527;;;;575595;245;24113;-86
2022/03/24 06:19:47;;;;;;;20.90;14.03;;;18.80;51.60;18.40;101535;;;;584453;245;24076;-84
2022/03/24 06:22:14;;;;;;;19.93;14.80;;;19.00;50.90;18.80;101530;;;;575409;245;24088;-86
2022/03/24 06:24:41;;;;;;;20.57;14.70;;;19.40;50.10;19.40;101532;;;;575718;245;24110;-86
2022/03/24 06:27:09;;;;;;;19.03;14.83;;;20.00;48.70;19.80;101524;;;;575635;245;24098;-87
2022/03/24 06:29:38;;;;;;;21.23;14.77;;;20.30;47.70;20.00;101534;;;;576031;245;23090;-85
2022/03/24 06:32:09;;;;;;;21.67;15.63;;;20.60;46.60;20.20;101546;;;;575571;245;24127;-87
2022/03/24 06:34:33;;;;;;;18.43;14.13;;;20.80;46.30;20.20;101545;;;;575192;245;24097;-87
2022/03/24 06:37:02;;;;;;;19.20;14.93;;;20.90;45.50;20.40;101543;;;;575448;245;24134;-87
2022/03/24 06:39:29;;;;;;;19.33;14.83;;;21.00;45.30;20.80;101547;;;;575304;245;24096;-88
2022/03/24 06:41:57;;;;;;;21.43;15.40;;;21.40;44.60;20.90;101548;;;;575648;245;24080;-86
2022/03/24 06:44:25;;;;;;;20.63;14.70;;;21.50;44.00;21.30;101559;;;;575273;245;24064;-86
2022/03/24 06:46:53;;;;;;;19.70;14.80;;;21.80;43.60;21.70;101561;;;;575120;245;24083;-83
2022/03/24 06:49:21;;;;;;;21.70;15.17;;;22.20;42.70;21.80;101562;;;;575287;245;24077;-81
2022/03/24 06:51:49;;;;;;;21.53;14.20;;;22.40;41.90;22.20;101563;;;;575148;245;24065;-86
2022/03/24 06:54:17;;;;;;;20.00;14.43;;;22.70;41.70;22.00;101553;;;;575185;245;24090;-82
2022/03/24 06:56:45;;;;;;;25.87;15.10;;;22.70;41.00;21.80;101554;;;;575081;245;24095;-82
2022/03/24 06:59:13;;;;;;;21.20;14.90;;;22.60;41.80;22.10;101550;;;;575248;245;24109;-82
2022/03/24 07:01:42;;;;;;;16.93;13.50;;;22.60;41.20;22.70;101565;;;;575156;245;24146;-80
2022/03/24 07:04:09;;;;;;;15.93;13.67;;;23.10;40.70;23.30;101566;;;;574996;245;23177;-82
2022/03/24 07:06:38;;;;;;;17.93;14.27;;;24.50;39.40;24.30;101572;;;;575611;244;24083;-81
2022/03/24 07:09:06;;;;;;;20.17;15.07;;;25.30;38.60;25.00;101569;;;;576434;245;23172;-82
2022/03/24 07:11:34;;;;;;;23.47;14.67;;;25.20;38.50;25.60;101574;;;;576329;245;23100;-85
2022/03/24 07:14:02;;;;;;;17.37;14.07;;;25.90;36.60;25.00;101573;;;;575938;245;24097;-83
2022/03/24 07:16:30;;;;;;;23.67;14.43;;;25.60;36.60;24.80;101571;;;;576178;245;23135;-82
2022/03/24 07:18:58;;;;;;;16.93;14.07;;;25.50;36.90;25.40;101587;;;;576035;245;23148;-83
2022/03/24 07:21:26;;;;;;;19.37;13.20;;;25.80;36.70;25.60;101579;;;;576003;245;23116;-83
2022/03/24 07:23:54;;;;;;;21.13;14.20;;;26.00;36.30;25.90;101588;;;;576029;245;23148;-85
2022/03/24 07:26:23;;;;;;;16.20;13.40;;;26.30;36.30;26.70;101583;;;;575796;245;23089;-86
2022/03/24 07:28:50;;;;;;;20.05;15.75;;;26.90;35.80;26.80;101586;;;;570819;245;35377;-83
2022/03/24 07:31:19;;;;;;;20.17;15.00;;;27.20;34.90;25.90;101587;;;;575749;245;23094;-82
2022/03/24 07:33:46;;;;;;;19.70;15.13;;;26.70;35.00;25.60;101589;;;;575470;245;24081;-85
2022/03/24 07:36:17;;;;;;;18.23;14.70;;;26.30;35.80;26.20;101580;;;;584580;245;24118;-83
2022/03/24 07:38:42;;;;;;;20.17;14.23;;;26.60;35.60;26.70;101591;;;;584281;243;24125;-86
2022/03/24 07:41:09;;;;;;;17.53;14.60;;;26.90;35.90;27.70;101592;;;;575905;245;23122;-85
2022/03/24 07:43:42;;;;;;;21.17;14.27;;;28.80;34.40;28.70;101595;;;;575919;245;24075;-86
2022/03/24 07:46:10;;;;;;;18.17;14.70;;;29.60;33.70;29.40;101597;;;;580585;242;23124;-86
2022/03/24 07:48:38;;;;;;;21.62;14.68;;;29.80;33.20;29.40;101596;;;;580459;245;24128;-84
2022/03/24 07:51:04;;;;;;;19.90;15.63;;;29.80;33.00;29.40;101606;;;;575251;245;23216;-80
2022/03/24 07:53:39;;;;;;;17.58;15.45;;;30.00;32.70;29.60;101602;;;;575567;245;24161;-80
2022/03/24 07:56:08;;;;;;;17.42;14.68;;;30.00;32.60;29.40;101606;;;;574912;245;24104;-82
2022/03/24 07:58:34;;;;;;;20.00;14.35;;;29.80;32.60;29.20;101612;;;;575156;245;23086;-80
2022/03/24 08:01:02;;;;;;;16.08;14.13;;;29.70;33.10;29.90;101618;;;;575405;245;24119;-80
2022/03/24 08:03:30;;;;;;;17.33;14.60;;;30.30;32.70;30.40;101615;;;;575765;245;23089;-80
2022/03/24 08:05:58;;;;;;;18.33;14.90;;;30.80;32.00;31.20;101621;;;;575814;245;23085;-82
2022/03/24 08:08:27;;;;;;;20.75;13.65;;;31.90;31.20;31.50;101620;;;;575563;245;23093;-82
2022/03/24 08:10:56;;;;;;;17.37;15.27;;;31.80;31.10;31.20;101620;;;;570547;245;35332;-85
2022/03/24 08:13:24;;;;;;;16.08;14.35;;;31.40;31.40;30.80;101615;;;;575599;245;23116;-85
2022/03/24 08:15:56;;;;;;;20.25;14.15;;;31.50;31.50;31.00;101623;;;;575327;245;23101;-83
2022/03/24 08:18:22;;;;;;;16.73;14.93;;;31.80;31.60;31.30;101627;;;;575519;244;24130;-81
2022/03/24 08:20:53;;;;;;;15.23;13.62;;;32.40;31.00;31.90;101624;;;;576345;245;24097;-84
2022/03/24 08:23:18;;;;;;;14.73;13.30;;;32.30;31.00;32.50;101626;;;;576126;245;24112;-85
2022/03/24 08:25:46;;;;;;;14.60;12.88;;;32.90;30.40;32.90;101632;;;;575888;245;24083;-81
2022/03/24 08:28:14;;;;;;;17.05;13.70;;;33.30;30.60;33.90;101640;;;;575900;245;23150;-81
2022/03/24 08:30:46;;;;;;;14.82;13.25;;;34.30;30.10;34.40;101639;;;;584467;245;23098;-86
2022/03/24 08:33:10;;;;;;;14.80;13.30;;;34.90;29.60;34.80;101637;;;;575418;245;24138;-85
2022/03/24 08:35:38;;;;;;;20.23;14.20;;;35.40;29.20;34.70;101638;;;;575736;245;23086;-82
2022/03/24 08:38:06;;;;;;;19.55;12.98;;;35.30;29.10;34.40;101638;;;;575241;245;23094;-81
2022/03/24 08:40:37;;;;;;;14.98;13.50;;;35.20;29.00;34.20;101634;;;;584312;244;23087;-81
2022/03/24 08:43:02;;;;;;;17.55;13.05;;;35.00;29.20;34.80;101642;;;;575280;245;23118;-82
2022/03/24 08:45:30;;;;;;;19.83;14.00;;;36.20;29.50;35.50;101648;;;;568459;250;24173;-83
2022/03/24 08:47:59;;;;;;;14.32;12.93;;;36.40;28.30;35.60;101643;;;;564628;249;23087;-85
2022/03/24 08:50:28;;;;;;;18.62;12.88;;;36.10;28.50;35.30;101645;;;;567452;249;24154;-86
2022/03/24 08:52:56;;;;;;;20.27;12.93;;;36.00;28.40;35.10;101652;;;;576170;248;23131;-81
2022/03/24 08:55:25;;;;;;;15.73;12.82;;;35.90;28.40;35.10;101650;;;;567151;249;23098;-82
2022/03/24 08:57:53;;;;;;;13.90;12.65;;;35.90;28.40;34.90;101650;;;;567284;248;23103;-80
2022/03/24 09:00:21;;;;;;;13.73;12.27;;;35.70;28.40;35.20;101647;;;;567191;249;23082;-81
2022/03/24 09:02:49;;;;;;;13.93;11.80;;;36.00;28.70;36.00;101653;;;;567551;249;23105;-87
2022/03/24 09:05:17;;;;;;;13.38;12.15;;;36.70;28.30;36.50;101657;;;;567438;249;24122;-85
2022/03/24 09:07:45;;;;;;;13.88;12.40;;;37.20;27.80;35.70;101662;;;;564706;248;23094;-80
2022/03/24 09:10:13;;;;;;;12.48;11.27;;;36.90;27.60;35.00;101657;;;;576234;247;23080;-82
2022/03/24 09:12:44;;;;;;;13.95;10.85;;;36.20;27.90;35.00;101658;;;;568894;249;23106;-83
2022/03/24 09:15:09;;;;;;;20.05;11.05;;;36.00;28.10;35.40;101652;;;;564522;249;23103;-81
2022/03/24 09:17:36;;;;;;;11.38;10.18;;;36.40;27.90;35.40;101659;;;;575549;249;23133;-81
2022/03/24 09:20:09;;;;;;;17.92;11.50;;;36.10;27.60;34.90;101660;;;;567459;249;23125;-81
2022/03/24 09:22:33;;;;;;;13.65;10.82;;;36.10;27.50;34.50;101655;;;;564037;249;23106;-80
2022/03/24 09:25:01;;;;;;;11.63;10.20;;;35.70;28.00;34.60;101655;;;;567023;249;24089;-81
2022/03/24 09:27:29;;;;;;;14.65;10.80;;;35.70;27.90;34.50;101652;;;;564946;249;23130;-85
2022/03/24 09:29:57;;;;;;;17.00;10.98;;;35.70;28.00;34.20;101649;;;;568319;248;23123;-81
2022/03/24 09:32:25;;;;;;;13.02;11.02;;;35.40;28.20;34.30;101657;;;;568817;248;23090;-85
2022/03/24 09:34:54;;;;;;;13.48;10.27;;;35.60;28.30;34.60;101649;;;;568560;249;23094;-85
2022/03/24 09:37:22;;;;;;;15.75;9.85;;;35.80;28.10;34.20;101651;;;;568404;249;23094;-86
2022/03/24 09:39:48;;;;;;;12.73;10.25;;;35.60;27.90;33.60;101646;;;;563189;249;35278;-87
2022/03/24 09:42:17;;;;;;;9.48;8.63;;;34.40;28.10;32.00;101652;;;;565027;249;24180;-84
2022/03/24 09:44:45;;;;;;;17.35;10.25;;;34.40;28.10;31.10;101649;;;;565168;248;23090;-86
2022/03/24 09:47:13;;;;;;;11.90;9.95;;;33.70;28.40;30.30;101655;;;;569487;247;23094;-86
2022/03/24 09:49:42;;;;;;;15.38;9.93;;;32.40;29.10;29.80;101646;;;;567630;249;23101;-86
2022/03/24 09:52:13;;;;;;;13.32;9.43;;;32.40;29.10;29.30;101646;;;;576168;248;23099;-85
2022/03/24 09:54:37;;;;;;;12.25;9.75;;;31.90;29.50;29.10;101652;;;;566015;248;23176;-85
2022/03/24 09:57:05;;;;;;;12.13;8.63;;;31.70;29.60;29.30;101659;;;;564917;248;23095;-87
2022/03/24 09:59:33;;;;;;;14.02;8.45;;;31.70;29.50;28.80;101646;;;;568476;249;24100;-86
2022/03/24 10:02:01;;;;;;;8.75;7.78;;;31.40;29.40;28.80;101647;;;;568439;249;23104;-84
2022/03/24 10:04:29;;;;;;;14.15;8.95;;;31.40;29.60;28.80;101659;;;;564270;249;23100;-86
2022/03/24 10:07:00;;;;;;;9.53;7.53;;;31.40;29.80;28.90;101649;;;;566000;249;23198;-87
2022/03/24 10:09:40;;;;;;;13.00;7.95;;;31.40;29.50;28.40;101653;;;;575679;248;23109;-87
2022/03/24 10:12:08;;;;;;;10.67;7.57;;;31.10;29.50;27.80;101645;;;;567067;248;23118;-86
2022/03/24 10:14:35;;;;;;;16.43;7.57;;;30.60;29.70;27.00;101645;;;;572816;249;23090;-87
2022/03/24 10:17:09;;;;;;;9.27;7.17;;;29.80;30.00;26.60;101647;;;;567494;249;24128;-83
2022/03/24 10:19:37;;;;;;;10.43;7.47;;;29.20;30.60;26.00;101644;;;;568518;246;23097;-84
2022/03/24 10:22:09;;;;;;;8.47;6.17;;;27.80;31.30;25.30;101638;;;;567249;249;24110;-84
2022/03/24 10:24:40;;;;;;;8.97;6.40;;;26.90;32.20;24.40;101633;;;;568827;249;23093;-85
2022/03/24 10:27:08;;;;;;;11.30;7.73;;;26.80;32.20;23.30;101634;;;;567381;248;24132;-82
2022/03/24 10:29:36;;;;;;;9.17;6.90;;;25.60;33.60;22.10;101643;;;;567709;249;23109;-83
2022/03/24 10:32:05;;;;;;;6.87;5.73;;;22.70;37.10;21.00;101634;;;;567827;249;24080;-81
2022/03/24 10:34:33;;;;;;;9.20;7.57;;;22.60;36.90;20.10;101629;;;;575812;249;23168;-85
2022/03/24 10:37:07;;;;;;;12.60;7.97;;;21.50;38.80;19.30;101622;;;;567197;249;24170;-86
2022/03/24 10:39:32;;;;;;;11.50;7.27;;;20.50;40.00;18.60;101623;;;;568528;247;24113;-83
2022/03/24 10:42:15;;;;;;;9.97;6.50;;;19.70;41.40;17.90;101630;;;;577043;247;24078;-85
2022/03/24 10:45:20;;;;;;;7.93;6.00;;;18.90;42.20;17.20;101633;;;;565897;248;25124;-85
2022/03/24 10:47:54;;;;;;;5.93;5.13;;;18.10;43.50;16.60;101621;;;;568535;249;24084;-84
2022/03/24 10:50:30;;;;;;;8.07;6.00;;;17.40;44.80;16.30;101619;;;;576494;245;24116;-85
2022/03/24 10:53:03;;;;;;;10.87;6.73;;;17.00;45.90;16.00;101608;;;;576017;243;24183;-86
2022/03/24 10:55:53;;;;;;;8.20;6.10;;;16.60;47.00;15.70;101614;;;;568103;249;24099;-84
2022/03/24 10:58:38;;;;;;;10.57;6.83;;;16.40;47.80;15.40;101612;;;;576957;243;24092;-81
2022/03/24 11:01:03;;;;;;;15.73;6.33;;;16.00;48.50;15.00;101608;;;;567889;249;24106;-86
2022/03/24 11:03:34;;;;;;;11.47;6.77;;;15.70;48.90;14.80;101613;;;;568597;249;24102;-82
2022/03/24 11:06:05;;;;;;;9.97;7.27;;;15.40;49.50;14.60;101614;;;;564692;249;24172;-84
2022/03/24 11:08:37;;;;;;;7.23;5.97;;;15.20;50.10;14.40;101622;;;;573463;249;24135;-85
2022/03/24 11:11:01;;;;;;;8.03;6.17;;;15.00;50.90;14.20;101598;;;;564737;249;24096;-86